sensor_id;sensor_type;location;lat;lon;timestamp;P1;durP1;ratioP1;P2;durP2;ratioP2
21281;SDS011;10800;53.096;18.328;2022-10-31T00:02:52;20.30;;;9.47;;
21281;SDS011;10800;53.096;18.328;2022-10-31T00:07:57;26.77;;;11.80;;
21281;SDS011;10800;53.096;18.328;2022-10-31T00:13:02;21.70;;;10.43;;
21281;SDS011;10800;53.096;18.328;2022-10-31T00:18:08;24.70;;;11.30;;
21281;SDS011;10800;53.096;18.328;2022-10-31T00:23:14;27.57;;;11.00;;
21281;SDS011;10800;53.096;18.328;2022-10-31T00:28:19;24.07;;;9.50;;
21281;SDS011;10800;53.096;18.328;2022-10-31T00:33:24;19.67;;;9.33;;
21281;SDS011;10800;53.096;18.328;2022-10-31T00:38:30;23.73;;;9.30;;
21281;SDS011;10800;53.096;18.328;2022-10-31T00:43:35;21.57;;;9.30;;
21281;SDS011;10800;53.096;18.328;2022-10-31T00:48:41;19.93;;;10.17;;
21281;SDS011;10800;53.096;18.328;2022-10-31T00:53:46;14.93;;;8.93;;
21281;SDS011;10800;53.096;18.328;2022-10-31T00:58:52;16.40;;;9.17;;
21281;SDS011;10800;53.096;18.328;2022-10-31T01:03:57;18.23;;;8.57;;
21281;SDS011;10800;53.096;18.328;2022-10-31T01:09:02;22.90;;;10.17;;
21281;SDS011;10800;53.096;18.328;2022-10-31T01:14:08;21.07;;;9.57;;
21281;SDS011;10800;53.096;18.328;2022-10-31T01:19:14;22.50;;;10.23;;
21281;SDS011;10800;53.096;18.328;2022-10-31T01:24:19;25.57;;;8.53;;
21281;SDS011;10800;53.096;18.328;2022-10-31T01:29:24;24.93;;;10.63;;
21281;SDS011;10800;53.096;18.328;2022-10-31T01:34:29;30.20;;;9.93;;
21281;SDS011;10800;53.096;18.328;2022-10-31T01:39:35;18.47;;;9.20;;
21281;SDS011;10800;53.096;18.328;2022-10-31T01:49:51;19.10;;;9.73;;
21281;SDS011;10800;53.096;18.328;2022-10-31T01:55:11;22.57;;;10.47;;
21281;SDS011;10800;53.096;18.328;2022-10-31T02:00:17;17.37;;;9.73;;
21281;SDS011;10800;53.096;18.328;2022-10-31T02:05:26;16.33;;;8.73;;
21281;SDS011;10800;53.096;18.328;2022-10-31T02:10:33;16.40;;;8.40;;
21281;SDS011;10800;53.096;18.328;2022-10-31T02:15:41;15.77;;;8.77;;
21281;SDS011;10800;53.096;18.328;2022-10-31T02:20:53;20.57;;;9.93;;
21281;SDS011;10800;53.096;18.328;2022-10-31T02:36:56;17.30;;;7.97;;
21281;SDS011;10800;53.096;18.328;2022-10-31T02:42:16;22.73;;;9.07;;
21281;SDS011;10800;53.096;18.328;2022-10-31T02:47:28;17.40;;;8.90;;
21281;SDS011;10800;53.096;18.328;2022-10-31T02:52:34;16.80;;;7.77;;
21281;SDS011;10800;53.096;18.328;2022-10-31T02:57:40;17.20;;;8.30;;
21281;SDS011;10800;53.096;18.328;2022-10-31T03:02:50;16.23;;;7.50;;
21281;SDS011;10800;53.096;18.328;2022-10-31T03:08:15;19.73;;;8.93;;
21281;SDS011;10800;53.096;18.328;2022-10-31T03:18:57;13.23;;;6.83;;
21281;SDS011;10800;53.096;18.328;2022-10-31T03:24:06;15.37;;;7.03;;
21281;SDS011;10800;53.096;18.328;2022-10-31T03:29:13;14.37;;;7.10;;
21281;SDS011;10800;53.096;18.328;2022-10-31T03:34:21;12.83;;;6.73;;
21281;SDS011;10800;53.096;18.328;2022-10-31T03:39:27;15.37;;;8.40;;
21281;SDS011;10800;53.096;18.328;2022-10-31T03:44:34;14.60;;;7.63;;
21281;SDS011;10800;53.096;18.328;2022-10-31T03:49:41;22.30;;;9.73;;
21281;SDS011;10800;53.096;18.328;2022-10-31T03:54:51;18.53;;;8.63;;
21281;SDS011;10800;53.096;18.328;2022-10-31T04:00:00;15.73;;;7.10;;
21281;SDS011;10800;53.096;18.328;2022-10-31T04:05:04;16.30;;;6.90;;
21281;SDS011;10800;53.096;18.328;2022-10-31T04:10:11;20.57;;;8.50;;
21281;SDS011;10800;53.096;18.328;2022-10-31T04:15:18;14.97;;;7.80;;
21281;SDS011;10800;53.096;18.328;2022-10-31T04:20:35;16.90;;;7.97;;
21281;SDS011;10800;53.096;18.328;2022-10-31T04:25:42;16.47;;;7.60;;
21281;SDS011;10800;53.096;18.328;2022-10-31T04:30:47;15.67;;;7.20;;
21281;SDS011;10800;53.096;18.328;2022-10-31T04:35:52;18.37;;;8.97;;
21281;SDS011;10800;53.096;18.328;2022-10-31T04:40:58;19.23;;;7.63;;
21281;SDS011;10800;53.096;18.328;2022-10-31T04:46:03;17.10;;;7.87;;
21281;SDS011;10800;53.096;18.328;2022-10-31T04:51:09;17.00;;;8.70;;
21281;SDS011;10800;53.096;18.328;2022-10-31T04:56:14;11.00;;;7.00;;
21281;SDS011;10800;53.096;18.328;2022-10-31T05:01:20;25.43;;;8.87;;
21281;SDS011;10800;53.096;18.328;2022-10-31T05:06:25;15.90;;;8.10;;
21281;SDS011;10800;53.096;18.328;2022-10-31T05:11:30;17.27;;;7.63;;
21281;SDS011;10800;53.096;18.328;2022-10-31T05:16:35;14.13;;;6.80;;
21281;SDS011;10800;53.096;18.328;2022-10-31T05:21:40;15.90;;;7.60;;
21281;SDS011;10800;53.096;18.328;2022-10-31T05:26:46;17.10;;;8.10;;
21281;SDS011;10800;53.096;18.328;2022-10-31T05:31:52;19.23;;;8.80;;
21281;SDS011;10800;53.096;18.328;2022-10-31T05:36:57;25.43;;;7.97;;
21281;SDS011;10800;53.096;18.328;2022-10-31T05:42:02;12.40;;;7.23;;
21281;SDS011;10800;53.096;18.328;2022-10-31T05:47:08;14.13;;;7.30;;
21281;SDS011;10800;53.096;18.328;2022-10-31T05:52:13;14.33;;;7.53;;
21281;SDS011;10800;53.096;18.328;2022-10-31T05:57:19;14.27;;;7.33;;
21281;SDS011;10800;53.096;18.328;2022-10-31T06:02:24;21.27;;;10.00;;
21281;SDS011;10800;53.096;18.328;2022-10-31T06:07:33;17.60;;;8.93;;
21281;SDS011;10800;53.096;18.328;2022-10-31T06:12:39;13.80;;;7.63;;
21281;SDS011;10800;53.096;18.328;2022-10-31T06:17:44;14.57;;;7.17;;
21281;SDS011;10800;53.096;18.328;2022-10-31T06:22:50;17.00;;;8.60;;
21281;SDS011;10800;53.096;18.328;2022-10-31T06:27:55;12.60;;;6.97;;
21281;SDS011;10800;53.096;18.328;2022-10-31T06:33:03;17.20;;;8.57;;
21281;SDS011;10800;53.096;18.328;2022-10-31T06:38:09;16.60;;;8.43;;
21281;SDS011;10800;53.096;18.328;2022-10-31T06:43:14;14.10;;;6.73;;
21281;SDS011;10800;53.096;18.328;2022-10-31T06:48:19;16.00;;;9.77;;
21281;SDS011;10800;53.096;18.328;2022-10-31T06:53:26;19.87;;;10.67;;
21281;SDS011;10800;53.096;18.328;2022-10-31T06:58:34;21.07;;;8.40;;
21281;SDS011;10800;53.096;18.328;2022-10-31T07:03:39;13.40;;;7.80;;
21281;SDS011;10800;53.096;18.328;2022-10-31T07:08:45;21.27;;;10.47;;
21281;SDS011;10800;53.096;18.328;2022-10-31T07:13:52;13.17;;;8.60;;
21281;SDS011;10800;53.096;18.328;2022-10-31T07:18:57;12.20;;;6.77;;
21281;SDS011;10800;53.096;18.328;2022-10-31T07:24:03;13.13;;;7.13;;
21281;SDS011;10800;53.096;18.328;2022-10-31T07:29:09;15.13;;;7.33;;
21281;SDS011;10800;53.096;18.328;2022-10-31T07:34:15;19.17;;;6.53;;
21281;SDS011;10800;53.096;18.328;2022-10-31T07:39:20;7.13;;;4.43;;
21281;SDS011;10800;53.096;18.328;2022-10-31T07:44:25;10.27;;;5.37;;
21281;SDS011;10800;53.096;18.328;2022-10-31T07:49:31;15.97;;;6.30;;
21281;SDS011;10800;53.096;18.328;2022-10-31T07:54:36;13.70;;;5.63;;
21281;SDS011;10800;53.096;18.328;2022-10-31T07:59:41;12.27;;;6.00;;
21281;SDS011;10800;53.096;18.328;2022-10-31T08:04:46;11.10;;;6.37;;
21281;SDS011;10800;53.096;18.328;2022-10-31T08:09:52;29.87;;;6.40;;
21281;SDS011;10800;53.096;18.328;2022-10-31T08:14:57;16.03;;;7.47;;
21281;SDS011;10800;53.096;18.328;2022-10-31T08:20:03;14.50;;;7.30;;
21281;SDS011;10800;53.096;18.328;2022-10-31T08:25:09;20.80;;;7.10;;
21281;SDS011;10800;53.096;18.328;2022-10-31T08:30:16;22.47;;;8.20;;
21281;SDS011;10800;53.096;18.328;2022-10-31T08:35:22;17.60;;;8.17;;
21281;SDS011;10800;53.096;18.328;2022-10-31T08:40:28;17.40;;;7.33;;
21281;SDS011;10800;53.096;18.328;2022-10-31T08:45:35;15.43;;;7.77;;
21281;SDS011;10800;53.096;18.328;2022-10-31T08:50:40;19.00;;;7.83;;
21281;SDS011;10800;53.096;18.328;2022-10-31T08:55:47;22.00;;;7.70;;
21281;SDS011;10800;53.096;18.328;2022-10-31T09:00:53;18.53;;;8.80;;
21281;SDS011;10800;53.096;18.328;2022-10-31T09:06:02;20.07;;;9.30;;
21281;SDS011;10800;53.096;18.328;2022-10-31T09:11:09;22.33;;;8.33;;
21281;SDS011;10800;53.096;18.328;2022-10-31T09:16:15;18.23;;;9.43;;
21281;SDS011;10800;53.096;18.328;2022-10-31T09:21:20;28.57;;;10.87;;
21281;SDS011;10800;53.096;18.328;2022-10-31T09:26:25;17.43;;;10.37;;
21281;SDS011;10800;53.096;18.328;2022-10-31T09:31:31;18.27;;;9.27;;
21281;SDS011;10800;53.096;18.328;2022-10-31T09:36:41;19.93;;;9.33;;
21281;SDS011;10800;53.096;18.328;2022-10-31T09:52:26;16.37;;;8.80;;
21281;SDS011;10800;53.096;18.328;2022-10-31T09:57:36;21.17;;;11.00;;
21281;SDS011;10800;53.096;18.328;2022-10-31T10:02:56;19.63;;;9.90;;
21281;SDS011;10800;53.096;18.328;2022-10-31T10:08:11;25.17;;;9.60;;
21281;SDS011;10800;53.096;18.328;2022-10-31T10:29:33;19.07;;;10.33;;
21281;SDS011;10800;53.096;18.328;2022-10-31T10:40:01;29.60;;;13.50;;
21281;SDS011;10800;53.096;18.328;2022-10-31T10:45:15;33.03;;;13.97;;
21281;SDS011;10800;53.096;18.328;2022-10-31T10:50:42;27.90;;;12.00;;
21281;SDS011;10800;53.096;18.328;2022-10-31T10:55:56;27.90;;;11.70;;
21281;SDS011;10800;53.096;18.328;2022-10-31T11:01:21;25.07;;;10.77;;
21281;SDS011;10800;53.096;18.328;2022-10-31T11:06:27;24.17;;;10.57;;
21281;SDS011;10800;53.096;18.328;2022-10-31T11:11:32;31.40;;;11.73;;
21281;SDS011;10800;53.096;18.328;2022-10-31T11:16:39;34.53;;;11.60;;
21281;SDS011;10800;53.096;18.328;2022-10-31T11:21:47;23.40;;;10.43;;
21281;SDS011;10800;53.096;18.328;2022-10-31T11:32:26;34.13;;;11.10;;
21281;SDS011;10800;53.096;18.328;2022-10-31T11:37:34;36.97;;;11.77;;
21281;SDS011;10800;53.096;18.328;2022-10-31T11:42:42;39.37;;;12.10;;
21281;SDS011;10800;53.096;18.328;2022-10-31T11:47:49;38.73;;;12.97;;
21281;SDS011;10800;53.096;18.328;2022-10-31T11:52:57;36.30;;;13.00;;
21281;SDS011;10800;53.096;18.328;2022-10-31T11:58:03;32.70;;;12.27;;
21281;SDS011;10800;53.096;18.328;2022-10-31T12:08:32;44.23;;;14.77;;
21281;SDS011;10800;53.096;18.328;2022-10-31T12:13:37;36.87;;;13.63;;
21281;SDS011;10800;53.096;18.328;2022-10-31T12:29:19;48.37;;;14.07;;
21281;SDS011;10800;53.096;18.328;2022-10-31T12:55:42;45.50;;;13.43;;
21281;SDS011;10800;53.096;18.328;2022-10-31T13:01:15;43.67;;;13.20;;
21281;SDS011;10800;53.096;18.328;2022-10-31T13:06:24;48.30;;;14.33;;
21281;SDS011;10800;53.096;18.328;2022-10-31T13:11:34;45.37;;;14.63;;
21281;SDS011;10800;53.096;18.328;2022-10-31T13:16:59;46.60;;;13.90;;
21281;SDS011;10800;53.096;18.328;2022-10-31T13:22:24;39.70;;;13.47;;
21281;SDS011;10800;53.096;18.328;2022-10-31T13:27:44;47.73;;;13.47;;
21281;SDS011;10800;53.096;18.328;2022-10-31T13:33:01;35.70;;;12.37;;
21281;SDS011;10800;53.096;18.328;2022-10-31T13:38:10;38.13;;;12.50;;
21281;SDS011;10800;53.096;18.328;2022-10-31T13:43:22;37.83;;;11.97;;
21281;SDS011;10800;53.096;18.328;2022-10-31T13:48:34;27.23;;;10.83;;
21281;SDS011;10800;53.096;18.328;2022-10-31T13:53:43;33.80;;;12.07;;
21281;SDS011;10800;53.096;18.328;2022-10-31T13:58:58;37.03;;;12.80;;
21281;SDS011;10800;53.096;18.328;2022-10-31T14:04:15;28.97;;;11.67;;
21281;SDS011;10800;53.096;18.328;2022-10-31T14:09:38;35.70;;;13.03;;
21281;SDS011;10800;53.096;18.328;2022-10-31T14:14:46;35.73;;;11.93;;
21281;SDS011;10800;53.096;18.328;2022-10-31T14:19:58;39.10;;;12.30;;
21281;SDS011;10800;53.096;18.328;2022-10-31T14:25:33;40.87;;;11.43;;
21281;SDS011;10800;53.096;18.328;2022-10-31T14:36:17;36.93;;;12.77;;
21281;SDS011;10800;53.096;18.328;2022-10-31T14:52:32;34.43;;;11.80;;
21281;SDS011;10800;53.096;18.328;2022-10-31T14:57:44;41.63;;;12.67;;
21281;SDS011;10800;53.096;18.328;2022-10-31T15:08:43;37.73;;;11.70;;
21281;SDS011;10800;53.096;18.328;2022-10-31T15:13:44;34.60;;;11.70;;
21281;SDS011;10800;53.096;18.328;2022-10-31T15:18:58;37.10;;;10.37;;
21281;SDS011;10800;53.096;18.328;2022-10-31T15:24:06;30.03;;;9.30;;
21281;SDS011;10800;53.096;18.328;2022-10-31T15:29:13;32.23;;;10.87;;
21281;SDS011;10800;53.096;18.328;2022-10-31T15:34:40;32.43;;;10.83;;
21281;SDS011;10800;53.096;18.328;2022-10-31T15:39:47;30.50;;;11.10;;
21281;SDS011;10800;53.096;18.328;2022-10-31T15:44:59;24.60;;;9.13;;
21281;SDS011;10800;53.096;18.328;2022-10-31T15:50:06;26.70;;;10.10;;
21281;SDS011;10800;53.096;18.328;2022-10-31T15:55:20;26.03;;;9.20;;
21281;SDS011;10800;53.096;18.328;2022-10-31T16:00:33;35.27;;;11.73;;
21281;SDS011;10800;53.096;18.328;2022-10-31T16:05:44;28.77;;;9.60;;
21281;SDS011;10800;53.096;18.328;2022-10-31T16:10:52;28.40;;;10.67;;
21281;SDS011;10800;53.096;18.328;2022-10-31T16:16:00;32.37;;;10.87;;
21281;SDS011;10800;53.096;18.328;2022-10-31T16:21:08;40.10;;;11.93;;
21281;SDS011;10800;53.096;18.328;2022-10-31T16:26:16;29.67;;;11.83;;
21281;SDS011;10800;53.096;18.328;2022-10-31T16:31:38;47.80;;;13.40;;
21281;SDS011;10800;53.096;18.328;2022-10-31T16:36:44;40.07;;;14.33;;
21281;SDS011;10800;53.096;18.328;2022-10-31T16:41:54;34.37;;;11.20;;
21281;SDS011;10800;53.096;18.328;2022-10-31T16:52:19;29.10;;;10.07;;
21281;SDS011;10800;53.096;18.328;2022-10-31T16:57:26;52.60;;;14.80;;
21281;SDS011;10800;53.096;18.328;2022-10-31T17:02:33;37.87;;;13.30;;
21281;SDS011;10800;53.096;18.328;2022-10-31T17:07:38;38.13;;;15.70;;
21281;SDS011;10800;53.096;18.328;2022-10-31T17:12:45;31.73;;;11.50;;
21281;SDS011;10800;53.096;18.328;2022-10-31T17:17:54;38.57;;;12.20;;
21281;SDS011;10800;53.096;18.328;2022-10-31T17:23:00;28.77;;;11.17;;
21281;SDS011;10800;53.096;18.328;2022-10-31T17:28:11;34.40;;;12.67;;
21281;SDS011;10800;53.096;18.328;2022-10-31T17:33:18;34.73;;;11.37;;
21281;SDS011;10800;53.096;18.328;2022-10-31T17:38:25;40.40;;;14.73;;
21281;SDS011;10800;53.096;18.328;2022-10-31T17:43:35;55.20;;;18.97;;
21281;SDS011;10800;53.096;18.328;2022-10-31T17:48:40;38.90;;;13.13;;
21281;SDS011;10800;53.096;18.328;2022-10-31T17:53:50;33.53;;;13.47;;
21281;SDS011;10800;53.096;18.328;2022-10-31T17:59:07;38.27;;;12.30;;
21281;SDS011;10800;53.096;18.328;2022-10-31T18:04:18;56.03;;;18.23;;
21281;SDS011;10800;53.096;18.328;2022-10-31T18:09:30;50.00;;;14.53;;
21281;SDS011;10800;53.096;18.328;2022-10-31T18:14:36;27.47;;;10.13;;
21281;SDS011;10800;53.096;18.328;2022-10-31T18:19:43;28.23;;;9.90;;
21281;SDS011;10800;53.096;18.328;2022-10-31T18:24:49;24.40;;;8.57;;
21281;SDS011;10800;53.096;18.328;2022-10-31T18:29:54;19.17;;;7.67;;
21281;SDS011;10800;53.096;18.328;2022-10-31T18:35:00;28.67;;;9.43;;
21281;SDS011;10800;53.096;18.328;2022-10-31T18:40:05;30.63;;;11.43;;
21281;SDS011;10800;53.096;18.328;2022-10-31T18:45:11;25.40;;;7.80;;
21281;SDS011;10800;53.096;18.328;2022-10-31T18:50:18;16.73;;;6.63;;
21281;SDS011;10800;53.096;18.328;2022-10-31T18:55:24;20.03;;;7.50;;
21281;SDS011;10800;53.096;18.328;2022-10-31T19:00:35;22.93;;;9.57;;
21281;SDS011;10800;53.096;18.328;2022-10-31T19:05:41;20.73;;;9.20;;
21281;SDS011;10800;53.096;18.328;2022-10-31T19:10:51;24.07;;;9.37;;
21281;SDS011;10800;53.096;18.328;2022-10-31T19:16:01;28.40;;;8.03;;
21281;SDS011;10800;53.096;18.328;2022-10-31T19:21:08;34.97;;;10.33;;
21281;SDS011;10800;53.096;18.328;2022-10-31T19:26:15;36.17;;;9.50;;
21281;SDS011;10800;53.096;18.328;2022-10-31T19:31:20;26.67;;;8.87;;
21281;SDS011;10800;53.096;18.328;2022-10-31T19:36:26;20.23;;;8.57;;
21281;SDS011;10800;53.096;18.328;2022-10-31T19:41:32;21.70;;;7.77;;
21281;SDS011;10800;53.096;18.328;2022-10-31T19:46:39;25.87;;;7.43;;
21281;SDS011;10800;53.096;18.328;2022-10-31T19:51:47;27.43;;;8.30;;
21281;SDS011;10800;53.096;18.328;2022-10-31T19:56:53;22.37;;;8.27;;
21281;SDS011;10800;53.096;18.328;2022-10-31T20:01:59;33.90;;;12.33;;
21281;SDS011;10800;53.096;18.328;2022-10-31T20:07:04;32.97;;;11.43;;
21281;SDS011;10800;53.096;18.328;2022-10-31T20:12:11;26.27;;;10.03;;
21281;SDS011;10800;53.096;18.328;2022-10-31T20:17:17;25.63;;;8.90;;
21281;SDS011;10800;53.096;18.328;2022-10-31T20:22:23;24.80;;;8.27;;
21281;SDS011;10800;53.096;18.328;2022-10-31T20:27:30;30.63;;;10.37;;
21281;SDS011;10800;53.096;18.328;2022-10-31T20:32:35;29.50;;;10.13;;
21281;SDS011;10800;53.096;18.328;2022-10-31T20:37:40;27.20;;;9.53;;
21281;SDS011;10800;53.096;18.328;2022-10-31T20:42:46;25.20;;;10.27;;
21281;SDS011;10800;53.096;18.328;2022-10-31T20:47:52;24.20;;;8.57;;
21281;SDS011;10800;53.096;18.328;2022-10-31T20:52:58;22.33;;;8.57;;
21281;SDS011;10800;53.096;18.328;2022-10-31T20:58:04;21.77;;;8.33;;
21281;SDS011;10800;53.096;18.328;2022-10-31T21:03:09;33.47;;;14.53;;
21281;SDS011;10800;53.096;18.328;2022-10-31T21:08:15;21.20;;;8.43;;
21281;SDS011;10800;53.096;18.328;2022-10-31T21:13:20;25.60;;;9.60;;
21281;SDS011;10800;53.096;18.328;2022-10-31T21:18:28;25.40;;;9.83;;
21281;SDS011;10800;53.096;18.328;2022-10-31T21:23:33;24.83;;;9.30;;
21281;SDS011;10800;53.096;18.328;2022-10-31T21:28:39;29.47;;;10.40;;
21281;SDS011;10800;53.096;18.328;2022-10-31T21:33:44;32.37;;;10.57;;
21281;SDS011;10800;53.096;18.328;2022-10-31T21:38:51;24.73;;;9.90;;
21281;SDS011;10800;53.096;18.328;2022-10-31T21:43:57;23.87;;;9.23;;
21281;SDS011;10800;53.096;18.328;2022-10-31T21:49:03;24.67;;;9.87;;
21281;SDS011;10800;53.096;18.328;2022-10-31T21:54:10;32.43;;;11.67;;
21281;SDS011;10800;53.096;18.328;2022-10-31T21:59:32;21.37;;;9.37;;
21281;SDS011;10800;53.096;18.328;2022-10-31T22:04:38;33.63;;;11.83;;
21281;SDS011;10800;53.096;18.328;2022-10-31T22:09:48;31.93;;;10.40;;
21281;SDS011;10800;53.096;18.328;2022-10-31T22:14:54;31.03;;;11.97;;
21281;SDS011;10800;53.096;18.328;2022-10-31T22:19:59;26.47;;;11.67;;
21281;SDS011;10800;53.096;18.328;2022-10-31T22:25:05;24.67;;;9.17;;
21281;SDS011;10800;53.096;18.328;2022-10-31T22:30:14;21.83;;;9.63;;
21281;SDS011;10800;53.096;18.328;2022-10-31T22:35:20;24.57;;;10.10;;
21281;SDS011;10800;53.096;18.328;2022-10-31T22:40:25;29.13;;;10.73;;
21281;SDS011;10800;53.096;18.328;2022-10-31T22:45:31;27.13;;;10.27;;
21281;SDS011;10800;53.096;18.328;2022-10-31T22:50:36;24.17;;;9.63;;
21281;SDS011;10800;53.096;18.328;2022-10-31T22:55:41;32.03;;;11.80;;
21281;SDS011;10800;53.096;18.328;2022-10-31T23:00:55;24.83;;;10.50;;
21281;SDS011;10800;53.096;18.328;2022-10-31T23:05:57;27.43;;;10.57;;
21281;SDS011;10800;53.096;18.328;2022-10-31T23:11:15;26.30;;;10.23;;
21281;SDS011;10800;53.096;18.328;2022-10-31T23:16:23;28.43;;;10.40;;
21281;SDS011;10800;53.096;18.328;2022-10-31T23:21:28;26.23;;;9.53;;
21281;SDS011;10800;53.096;18.328;2022-10-31T23:26:52;28.47;;;11.03;;
21281;SDS011;10800;53.096;18.328;2022-10-31T23:37:21;30.00;;;11.47;;
21281;SDS011;10800;53.096;18.328;2022-10-31T23:42:28;25.87;;;10.13;;
21281;SDS011;10800;53.096;18.328;2022-10-31T23:47:33;25.50;;;9.57;;
21281;SDS011;10800;53.096;18.328;2022-10-31T23:52:40;26.03;;;10.47;;
21281;SDS011;10800;53.096;18.328;2022-10-31T23:57:45;30.27;;;10.87;;
